Time;durP1;ratioP1;P1;durP2;ratioP2;P2;SDS_P1;SDS_P2;PMS_P1;PMS_P2;Temp;Humidity;BMP_temperature;BMP_pressure;BME280_temperature;BME280_humidity;BME280_pressure;Samples;Min_cycle;Max_cycle;Signal;HPM_P1;HPM_P2
2021/12/13 00:00:45;;;;;;;85.82;38.60;;;10.70;99.90;;;;;;5012200;28;20052;-82
2021/12/13 00:03:42;;;;;;;89.10;40.53;;;10.70;99.90;;;;;;5015540;28;20041;-81
2021/12/13 00:06:13;;;;;;;65.63;34.00;;;10.70;99.90;;;;;;5020294;28;20037;-82
2021/12/13 00:08:43;;;;;;;65.78;33.40;;;10.70;99.90;;;;;;5046772;28;20037;-82
2021/12/13 00:11:20;;;;;;;67.82;32.40;;;10.70;99.90;;;;;;5029860;28;20480;-82
2021/12/13 00:13:57;;;;;;;75.57;36.15;;;10.70;99.90;;;;;;5031379;28;20037;-80
2021/12/13 00:16:34;;;;;;;70.68;33.45;;;10.70;99.90;;;;;;5032479;28;20357;-81
2021/12/13 00:19:08;;;;;;;77.97;35.05;;;10.70;99.90;;;;;;5048400;28;20036;-81
2021/12/13 00:21:40;;;;;;;82.15;34.80;;;10.70;99.90;;;;;;5040481;28;20117;-81
2021/12/13 00:24:28;;;;;;;75.13;34.25;;;10.70;99.90;;;;;;5015027;28;20041;-80
2021/12/13 00:27:28;;;;;;;71.70;33.00;;;10.70;99.90;;;;;;5046310;28;20029;-80
2021/12/13 00:30:28;;;;;;;63.58;31.73;;;10.70;99.90;;;;;;5031321;28;20040;-80
2021/12/13 00:33:44;;;;;;;75.15;37.90;;;10.70;99.90;;;;;;5045960;28;20033;-79
2021/12/13 00:36:27;;;;;;;74.97;36.72;;;10.70;99.90;;;;;;5034325;28;20515;-79
2021/12/13 00:39:09;;;;;;;69.55;33.92;;;10.70;99.90;;;;;;5032585;28;20037;-79
2021/12/13 00:41:37;;;;;;;87.88;40.25;;;10.60;99.90;;;;;;5017681;28;20032;-79
2021/12/13 00:44:07;;;;;;;67.70;32.85;;;10.60;99.90;;;;;;5004826;28;20045;-80
2021/12/13 00:46:37;;;;;;;67.80;33.42;;;10.60;99.90;;;;;;5018637;28;20484;-79
2021/12/13 00:49:09;;;;;;;62.47;30.83;;;10.60;99.90;;;;;;5032097;28;20029;-79
2021/12/13 00:51:48;;;;;;;58.67;31.73;;;10.60;99.90;;;;;;5022837;28;20045;-79
2021/12/13 00:54:26;;;;;;;57.53;32.38;;;10.60;99.90;;;;;;5017734;28;20396;-79
2021/12/13 00:57:03;;;;;;;63.63;33.90;;;10.60;99.90;;;;;;5016804;28;20040;-79
2021/12/13 00:59:35;;;;;;;58.55;32.08;;;10.60;99.90;;;;;;5031926;28;20037;-80
2021/12/13 01:02:31;;;;;;;61.45;31.80;;;10.60;99.90;;;;;;5035573;28;20033;-80
2021/12/13 01:05:03;;;;;;;53.45;28.48;;;10.60;99.90;;;;;;5036332;28;20115;-79
2021/12/13 01:07:33;;;;;;;;;;;10.60;99.90;;;;;;5049914;28;20033;-78
2021/12/13 01:10:48;;;;;;;57.00;28.38;;;10.50;99.90;;;;;;5050217;28;19924;-78
2021/12/13 01:13:44;;;;;;;58.80;29.45;;;10.50;99.90;;;;;;5042987;28;20061;-78
2021/12/13 01:16:33;;;;;;;44.53;25.35;;;10.50;99.90;;;;;;5015546;28;20049;-78
2021/12/13 01:19:48;;;;;;;60.65;29.00;;;10.50;99.90;;;;;;5031215;28;20074;-78
2021/12/13 01:29:08;;;;;;;51.38;26.05;;;10.50;99.90;;;;;;5497746;23;20059;-77
2021/12/13 01:35:09;;;;;;;62.63;31.42;;;10.50;99.90;;;;;;4898779;24;20054;-78
2021/12/13 01:37:36;;;;;;;50.78;27.23;;;10.50;99.90;;;;;;4819182;29;20038;-77
2021/12/13 01:40:11;;;;;;;55.35;27.35;;;10.50;99.90;;;;;;4813365;29;20465;-77
2021/12/13 01:42:38;;;;;;;47.05;25.13;;;10.40;99.90;;;;;;4818899;29;20061;-77
2021/12/13 01:45:10;;;;;;;57.97;28.55;;;10.40;99.90;;;;;;4818888;29;20043;-78
2021/12/13 01:47:43;;;;;;;62.30;31.10;;;10.40;99.90;;;;;;4814247;29;20042;-77
2021/12/13 01:50:09;;;;;;;;;;;10.40;99.90;;;;;;4805335;29;20382;-77
2021/12/13 01:52:38;;;;;;;56.63;31.40;;;10.40;99.90;;;;;;4803010;29;19913;-77
2021/12/13 01:55:14;;;;;;;63.35;30.67;;;10.40;99.90;;;;;;4794812;29;20505;-78
2021/12/13 01:57:54;;;;;;;65.65;31.80;;;10.40;99.90;;;;;;4816872;29;20054;-77
2021/12/13 02:01:08;;;;;;;62.75;30.17;;;10.40;99.90;;;;;;4816057;29;20386;-77
2021/12/13 02:03:20;;;;;;;66.13;31.50;;;10.40;99.90;;;;;;4818793;29;20034;-78
2021/12/13 02:05:48;;;;;;;66.03;29.80;;;10.40;99.90;;;;;;4802778;29;20704;-77
2021/12/13 02:08:24;;;;;;;71.43;32.95;;;10.40;99.90;;;;;;4817271;29;20039;-79
2021/12/13 02:10:55;;;;;;;51.28;26.70;;;10.40;99.90;;;;;;4815801;29;20046;-77
2021/12/13 02:13:37;;;;;;;68.75;30.13;;;10.40;99.90;;;;;;4803078;29;20532;-77
2021/12/13 02:18:55;;;;;;;61.58;30.10;;;10.40;99.90;;;;;;4813545;29;20046;-77
2021/12/13 02:21:32;;;;;;;70.25;33.92;;;10.50;99.90;;;;;;4818931;29;20482;-77
2021/12/13 02:24:07;;;;;;;78.88;33.15;;;10.50;99.90;;;;;;4818616;29;20027;-78
2021/12/13 02:26:37;;;;;;;76.15;34.97;;;10.40;99.90;;;;;;4814385;29;20042;-77
2021/12/13 02:29:17;;;;;;;81.32;36.60;;;10.50;99.90;;;;;;4810634;29;20516;-78
2021/12/13 02:31:44;;;;;;;70.65;35.17;;;10.50;99.90;;;;;;4817894;29;20053;-77
2021/12/13 02:34:14;;;;;;;79.75;35.33;;;10.50;99.90;;;;;;4818322;29;20065;-77
2021/12/13 02:36:49;;;;;;;66.35;33.20;;;10.40;99.90;;;;;;4801915;29;20057;-77
2021/12/13 02:39:26;;;;;;;56.58;31.17;;;10.50;99.90;;;;;;4812833;29;20038;-78
2021/12/13 02:41:53;;;;;;;97.28;41.92;;;10.40;99.90;;;;;;4817411;29;20061;-79
2021/12/13 02:44:37;;;;;;;83.40;37.63;;;10.40;99.90;;;;;;4818707;29;20030;-79
2021/12/13 02:47:16;;;;;;;89.25;40.17;;;10.50;99.90;;;;;;4805692;29;20031;-78
2021/12/13 02:49:44;;;;;;;97.47;43.88;;;10.50;99.90;;;;;;4814322;29;20398;-77
2021/12/13 02:52:15;;;;;;;91.03;40.38;;;10.50;99.90;;;;;;4814968;29;20382;-77
2021/12/13 02:54:45;;;;;;;100.13;43.88;;;10.50;99.90;;;;;;4815010;29;20458;-77
2021/12/13 02:57:28;;;;;;;86.82;42.85;;;10.50;99.90;;;;;;4814267;29;20053;-77
2021/12/13 03:00:02;;;;;;;88.22;42.85;;;10.40;99.90;;;;;;4813911;29;20045;-79
2021/12/13 03:02:36;;;;;;;74.25;39.60;;;10.40;99.90;;;;;;4823209;29;20035;-77
2021/12/13 03:05:06;;;;;;;87.97;43.45;;;10.40;99.90;;;;;;4818207;29;20038;-77
2021/12/13 03:07:38;;;;;;;95.65;45.85;;;10.40;99.90;;;;;;4785319;29;20050;-79
2021/12/13 03:10:12;;;;;;;88.47;43.80;;;10.40;99.90;;;;;;4816212;29;20042;-79
2021/12/13 03:12:39;;;;;;;81.72;39.40;;;10.40;99.90;;;;;;4816739;29;20096;-77
2021/12/13 03:15:11;;;;;;;94.57;46.63;;;10.40;99.90;;;;;;4817148;29;20042;-79
2021/12/13 03:17:48;;;;;;;92.53;45.70;;;10.30;99.90;;;;;;4816055;29;20041;-79
2021/12/13 03:20:15;;;;;;;82.55;40.60;;;10.40;99.90;;;;;;4816811;29;20352;-77
2021/12/13 03:23:05;;;;;;;78.15;39.58;;;10.30;99.90;;;;;;4819293;29;20038;-77
2021/12/13 03:25:50;;;;;;;69.63;36.22;;;10.30;99.90;;;;;;4816365;29;20370;-77
2021/12/13 03:28:41;;;;;;;67.20;35.38;;;10.30;99.90;;;;;;4800397;29;20073;-77
2021/12/13 03:31:14;;;;;;;65.35;34.08;;;10.30;99.90;;;;;;4815466;29;20049;-77
2021/12/13 03:33:53;;;;;;;66.32;34.33;;;10.30;99.90;;;;;;4819225;29;20061;-79
2021/12/13 03:36:35;;;;;;;72.30;36.45;;;10.30;99.90;;;;;;4818013;29;20479;-79
2021/12/13 03:39:07;;;;;;;69.05;35.55;;;10.30;99.90;;;;;;4813377;29;20038;-79
2021/12/13 03:41:38;;;;;;;62.15;32.67;;;10.20;99.90;;;;;;4816128;29;20477;-79
2021/12/13 03:44:09;;;;;;;71.30;33.53;;;10.30;99.90;;;;;;4814879;29;20034;-79
2021/12/13 03:46:37;;;;;;;42.42;26.67;;;10.20;99.90;;;;;;4816207;29;20042;-79
2021/12/13 03:49:06;;;;;;;47.33;25.98;;;10.20;99.90;;;;;;4799198;29;20418;-79
2021/12/13 03:51:36;;;;;;;58.00;30.60;;;10.20;99.90;;;;;;4800456;29;20042;-79
2021/12/13 03:54:05;;;;;;;58.28;32.40;;;10.20;99.90;;;;;;4801569;29;20055;-79
2021/12/13 03:56:36;;;;;;;58.35;31.08;;;10.20;99.90;;;;;;4810929;29;20054;-79
2021/12/13 03:59:19;;;;;;;56.42;31.02;;;10.20;99.90;;;;;;4796701;29;20042;-79
2021/12/13 04:01:55;;;;;;;53.20;28.30;;;10.20;99.90;;;;;;4817885;29;20525;-79
2021/12/13 04:04:37;;;;;;;46.83;26.45;;;10.20;99.90;;;;;;4798114;29;20407;-79
2021/12/13 04:07:10;;;;;;;;;;;10.10;99.90;;;;;;4813046;29;20394;-79
2021/12/13 04:09:36;;;;;;;37.92;24.33;;;10.10;99.90;;;;;;4814103;29;19920;-79
2021/12/13 04:12:06;;;;;;;50.58;27.58;;;10.10;99.90;;;;;;4769566;29;20066;-78
2021/12/13 04:14:38;;;;;;;45.55;25.00;;;10.10;99.90;;;;;;4822426;29;20375;-79
2021/12/13 04:17:21;;;;;;;47.30;26.15;;;10.10;99.90;;;;;;4817642;29;20049;-79
2021/12/13 04:19:57;;;;;;;56.45;29.67;;;10.10;99.90;;;;;;4816717;29;20030;-79
2021/12/13 04:22:33;;;;;;;49.08;27.42;;;10.10;99.90;;;;;;4805242;29;20043;-79
2021/12/13 04:25:12;;;;;;;36.63;22.23;;;10.10;99.90;;;;;;4819167;29;20034;-79
2021/12/13 04:28:02;;;;;;;40.92;24.88;;;10.10;99.90;;;;;;4820112;29;20050;-79
2021/12/13 04:30:36;;;;;;;52.20;26.98;;;10.10;99.90;;;;;;4816419;29;20327;-79
2021/12/13 04:33:18;;;;;;;49.92;26.95;;;10.00;99.90;;;;;;4818059;29;20053;-79
2021/12/13 04:36:09;;;;;;;40.22;23.40;;;10.00;99.90;;;;;;4817732;29;20829;-79
2021/12/13 04:38:50;;;;;;;47.00;25.63;;;10.00;99.90;;;;;;4816758;29;20050;-79
2021/12/13 04:41:37;;;;;;;49.33;25.58;;;10.00;99.90;;;;;;4818387;29;20368;-79
2021/12/13 04:44:11;;;;;;;56.13;28.08;;;10.00;99.90;;;;;;4819320;29;20341;-79
2021/12/13 04:46:43;;;;;;;53.63;26.75;;;10.00;99.90;;;;;;4816394;29;20042;-79
2021/12/13 04:49:12;;;;;;;;;;;10.00;99.90;;;;;;4818751;29;20482;-79
2021/12/13 04:51:56;;;;;;;58.42;28.67;;;10.00;99.90;;;;;;4818488;29;19927;-79
2021/12/13 04:54:25;;;;;;;52.22;27.55;;;10.00;99.90;;;;;;4818670;29;20057;-79
2021/12/13 04:56:54;;;;;;;53.33;27.35;;;9.90;99.90;;;;;;4817246;29;20157;-79
2021/12/13 04:59:20;;;;;;;57.28;28.75;;;9.90;99.90;;;;;;4802124;29;20049;-79
2021/12/13 05:01:51;;;;;;;48.20;25.90;;;9.90;99.90;;;;;;4820899;29;20049;-79
2021/12/13 05:04:19;;;;;;;54.38;26.77;;;9.90;99.90;;;;;;4802763;29;20434;-79
2021/12/13 05:06:46;;;;;;;50.50;26.45;;;9.90;99.90;;;;;;4791901;29;20046;-79
2021/12/13 05:09:15;;;;;;;55.15;25.77;;;9.90;99.90;;;;;;4813322;29;20034;-79
2021/12/13 05:12:03;;;;;;;52.05;26.48;;;9.90;99.90;;;;;;4817711;29;20766;-79
2021/12/13 05:14:42;;;;;;;51.45;24.40;;;9.90;99.90;;;;;;4817441;29;20026;-79
2021/12/13 05:17:16;;;;;;;60.42;27.70;;;9.90;99.90;;;;;;4818399;29;20070;-79
2021/12/13 05:19:49;;;;;;;57.80;27.52;;;9.90;99.90;;;;;;4814522;29;20065;-79
2021/12/13 05:22:18;;;;;;;56.80;27.80;;;9.90;99.90;;;;;;4816918;29;20042;-79
2021/12/13 05:24:53;;;;;;;61.20;29.17;;;9.90;99.90;;;;;;4820519;29;20410;-79
2021/12/13 05:27:34;;;;;;;62.78;27.90;;;9.90;99.90;;;;;;4802690;29;20057;-79
2021/12/13 05:30:17;;;;;;;63.03;26.98;;;9.90;99.90;;;;;;4814465;29;20398;-79
2021/12/13 05:32:51;;;;;;;57.47;27.33;;;9.90;99.90;;;;;;4816852;29;20026;-79
2021/12/13 05:35:35;;;;;;;66.45;31.02;;;9.90;99.90;;;;;;4816111;29;20515;-79
2021/12/13 05:38:24;;;;;;;61.15;30.25;;;9.90;99.90;;;;;;4816875;29;20518;-79
2021/12/13 05:40:51;;;;;;;56.90;29.00;;;9.80;99.90;;;;;;4817838;29;20047;-79
2021/12/13 05:43:25;;;;;;;68.75;31.95;;;9.80;99.90;;;;;;4818576;29;20169;-79
2021/12/13 05:46:02;;;;;;;62.10;30.85;;;9.80;99.90;;;;;;4818416;29;20494;-78
2021/12/13 05:48:35;;;;;;;60.63;28.25;;;9.80;99.90;;;;;;4818355;29;20368;-79
2021/12/13 05:51:17;;;;;;;61.20;28.15;;;9.80;99.90;;;;;;4804048;29;20049;-79
2021/12/13 05:53:46;;;;;;;54.10;27.10;;;9.80;99.90;;;;;;4818985;29;20050;-78
2021/12/13 05:56:16;;;;;;;63.78;31.08;;;9.80;99.90;;;;;;4818350;29;20105;-78
2021/12/13 05:58:47;;;;;;;56.80;26.17;;;9.80;99.90;;;;;;4817512;29;20050;-78
2021/12/13 06:01:14;;;;;;;57.00;26.70;;;9.70;99.90;;;;;;4818889;29;20053;-78
2021/12/13 06:03:49;;;;;;;64.15;29.13;;;9.80;99.90;;;;;;4819792;29;20038;-78
2021/12/13 06:06:25;;;;;;;55.65;27.98;;;9.70;99.90;;;;;;4817409;29;20386;-78
2021/12/13 06:08:54;;;;;;;65.53;30.25;;;9.70;99.90;;;;;;4817030;29;20042;-78
2021/12/13 06:11:32;;;;;;;62.55;28.52;;;9.70;99.90;;;;;;4819898;29;20090;-78
2021/12/13 06:14:18;;;;;;;59.83;28.25;;;9.70;99.90;;;;;;4817869;29;20053;-78
2021/12/13 06:17:06;;;;;;;49.97;23.77;;;9.70;99.90;;;;;;4783927;29;20042;-78
2021/12/13 06:19:41;;;;;;;61.47;27.83;;;9.70;99.90;;;;;;4812699;29;20051;-78
2021/12/13 06:22:21;;;;;;;48.47;24.02;;;9.70;99.90;;;;;;4819325;29;20045;-78
2021/12/13 06:25:07;;;;;;;56.55;27.20;;;9.70;99.90;;;;;;4804427;29;20022;-78
2021/12/13 06:27:51;;;;;;;55.17;26.13;;;9.70;99.90;;;;;;4816585;29;20486;-78
2021/12/13 06:30:17;;;;;;;57.35;25.05;;;9.70;99.90;;;;;;4816496;29;20030;-78
2021/12/13 06:32:57;;;;;;;53.00;23.88;;;9.70;99.90;;;;;;4815772;29;20050;-77
2021/12/13 06:35:42;;;;;;;61.10;27.73;;;9.70;99.90;;;;;;4816928;29;20046;-76
2021/12/13 06:38:33;;;;;;;53.83;26.08;;;9.70;99.90;;;;;;4816434;29;20435;-78
2021/12/13 06:41:03;;;;;;;61.63;27.33;;;9.70;99.90;;;;;;4819430;29;20046;-76
2021/12/13 06:43:39;;;;;;;57.50;27.10;;;9.70;99.90;;;;;;4814190;29;20568;-76
2021/12/13 06:46:33;;;;;;;49.25;25.75;;;9.60;99.90;;;;;;4812267;29;20042;-76
2021/12/13 06:49:20;;;;;;;52.88;25.45;;;9.70;99.90;;;;;;4810332;29;20085;-76
2021/12/13 06:51:54;;;;;;;49.75;24.60;;;9.70;99.90;;;;;;4813903;29;20065;-75
2021/12/13 06:54:32;;;;;;;54.10;25.48;;;9.70;99.90;;;;;;4817040;29;20482;-75
2021/12/13 06:57:06;;;;;;;54.30;26.52;;;9.70;99.90;;;;;;4816639;29;20050;-75
2021/12/13 06:59:59;;;;;;;52.45;25.58;;;9.70;99.90;;;;;;4812477;29;20391;-76
2021/12/13 07:02:37;;;;;;;53.17;24.40;;;9.70;99.90;;;;;;4806342;29;20062;-76
2021/12/13 07:05:20;;;;;;;53.22;25.77;;;9.70;99.90;;;;;;4815249;29;20276;-76
2021/12/13 07:08:09;;;;;;;55.55;25.42;;;9.70;99.90;;;;;;4816472;29;20058;-76
2021/12/13 07:11:02;;;;;;;49.08;24.70;;;9.70;99.90;;;;;;4814723;29;20034;-75
2021/12/13 07:13:47;;;;;;;53.20;25.88;;;9.60;99.90;;;;;;4819085;29;20518;-76
2021/12/13 07:16:21;;;;;;;56.35;27.15;;;9.60;99.90;;;;;;4815005;29;20045;-76
2021/12/13 07:18:50;;;;;;;53.45;25.38;;;9.60;99.90;;;;;;4815562;29;20517;-76
2021/12/13 07:21:21;;;;;;;52.80;25.67;;;9.60;99.90;;;;;;4788114;29;20043;-76
2021/12/13 07:24:12;;;;;;;49.70;24.25;;;9.60;99.90;;;;;;4815878;29;20045;-76
2021/12/13 07:26:43;;;;;;;46.05;22.55;;;9.60;99.90;;;;;;4815271;29;20039;-76
2021/12/13 07:29:20;;;;;;;50.67;24.08;;;9.60;99.90;;;;;;4814712;29;20038;-76
2021/12/13 07:32:15;;;;;;;51.58;24.55;;;9.60;99.90;;;;;;4816846;29;20042;-76
2021/12/13 07:35:14;;;;;;;44.55;23.02;;;9.60;99.90;;;;;;4815880;29;20058;-76
2021/12/13 07:37:54;;;;;;;44.72;23.85;;;9.60;99.90;;;;;;4812356;29;20501;-76
2021/12/13 07:40:32;;;;;;;45.17;22.65;;;9.60;99.90;;;;;;4812835;29;20054;-76
2021/12/13 07:43:21;;;;;;;50.22;23.75;;;9.60;99.90;;;;;;4817594;29;20034;-76
2021/12/13 07:45:56;;;;;;;44.92;23.02;;;9.60;99.90;;;;;;4817994;29;20038;-76
2021/12/13 07:48:31;;;;;;;49.72;25.38;;;9.60;99.90;;;;;;4799683;29;20049;-76
2021/12/13 07:51:22;;;;;;;46.47;22.52;;;9.60;99.90;;;;;;4819606;29;20045;-76
2021/12/13 07:53:59;;;;;;;48.28;24.17;;;9.60;99.90;;;;;;4818167;29;20042;-79
2021/12/13 07:56:28;;;;;;;43.95;23.27;;;9.60;99.90;;;;;;4819781;29;20058;-78
2021/12/13 07:59:27;;;;;;;44.50;24.20;;;9.60;99.90;;;;;;4817678;29;20038;-77
2021/12/13 08:02:42;;;;;;;43.80;22.90;;;9.60;99.90;;;;;;4800561;29;20054;-77
2021/12/13 08:05:13;;;;;;;44.03;21.08;;;9.60;99.90;;;;;;4834138;29;20392;-76
2021/12/13 08:07:47;;;;;;;42.65;22.63;;;9.60;99.90;;;;;;4823094;29;20053;-75
2021/12/13 08:10:30;;;;;;;48.70;22.85;;;9.60;99.90;;;;;;4801590;29;20038;-76
2021/12/13 08:13:02;;;;;;;44.00;22.63;;;9.60;99.90;;;;;;4815421;29;20474;-76
2021/12/13 08:15:36;;;;;;;40.95;22.05;;;9.60;99.90;;;;;;4817501;29;20042;-77
2021/12/13 08:18:22;;;;;;;44.20;21.63;;;9.60;99.90;;;;;;4809648;29;20046;-77
2021/12/13 08:21:04;;;;;;;43.47;21.92;;;9.70;99.90;;;;;;4814051;29;20406;-76
2021/12/13 08:23:35;;;;;;;43.65;21.88;;;9.70;99.90;;;;;;4800665;29;20030;-77
2021/12/13 08:26:06;;;;;;;43.67;23.20;;;9.70;99.90;;;;;;4817508;29;20387;-75
2021/12/13 08:28:43;;;;;;;46.72;24.33;;;9.70;99.90;;;;;;4819471;29;20426;-77
2021/12/13 08:31:21;;;;;;;48.85;26.80;;;9.70;99.90;;;;;;4819284;29;20054;-76
2021/12/13 08:33:52;;;;;;;38.47;21.85;;;9.70;99.90;;;;;;4818374;29;20410;-76
2021/12/13 08:36:31;;;;;;;38.65;21.75;;;9.70;99.90;;;;;;4817908;29;20046;-76
2021/12/13 08:39:17;;;;;;;35.53;19.20;;;9.70;99.90;;;;;;4828325;29;20071;-76
2021/12/13 08:41:49;;;;;;;46.00;23.60;;;9.70;99.90;;;;;;4820503;29;20350;-76
2021/12/13 08:44:36;;;;;;;42.03;21.03;;;9.70;99.90;;;;;;4820319;29;20046;-76
2021/12/13 08:47:16;;;;;;;33.05;18.42;;;9.80;99.90;;;;;;4819879;29;20295;-76
2021/12/13 08:49:49;;;;;;;36.88;18.40;;;9.80;99.90;;;;;;4819174;29;20038;-76
2021/12/13 08:52:19;;;;;;;39.88;21.35;;;9.80;99.90;;;;;;4819900;29;20046;-76
2021/12/13 08:55:12;;;;;;;37.67;19.58;;;9.80;99.90;;;;;;4819442;29;20046;-76
2021/12/13 08:57:51;;;;;;;36.63;19.92;;;9.90;99.90;;;;;;4818728;29;20042;-77
2021/12/13 09:00:35;;;;;;;33.38;19.23;;;9.90;99.90;;;;;;4788074;29;20046;-76
2021/12/13 09:03:01;;;;;;;32.47;18.95;;;9.90;99.90;;;;;;4786309;29;20505;-76
2021/12/13 09:05:35;;;;;;;35.28;19.40;;;9.90;99.90;;;;;;4821087;29;20042;-76
2021/12/13 09:08:04;;;;;;;32.97;18.35;;;9.90;99.90;;;;;;4819313;29;20030;-76
2021/12/13 09:10:40;;;;;;;35.97;19.13;;;9.90;99.90;;;;;;4818297;29;20038;-76
2021/12/13 09:13:07;;;;;;;37.67;20.27;;;9.90;99.90;;;;;;4818798;29;20065;-76
2021/12/13 09:15:35;;;;;;;35.17;19.88;;;9.90;99.90;;;;;;4820125;29;20053;-76
2021/12/13 09:18:03;;;;;;;37.22;19.70;;;9.90;99.90;;;;;;4816299;29;20046;-76
2021/12/13 09:20:41;;;;;;;37.75;19.50;;;9.90;99.90;;;;;;4832394;29;20054;-76
2021/12/13 09:23:16;;;;;;;30.42;17.77;;;9.90;99.90;;;;;;4818648;29;20045;-76
2021/12/13 09:25:54;;;;;;;31.15;17.80;;;9.90;99.90;;;;;;4815798;29;20030;-76
2021/12/13 09:28:35;;;;;;;32.63;18.20;;;9.90;99.90;;;;;;4817134;29;20053;-75
2021/12/13 09:31:12;;;;;;;34.13;18.35;;;9.90;99.90;;;;;;4818683;29;20030;-75
2021/12/13 09:33:50;;;;;;;29.42;17.33;;;9.90;99.90;;;;;;4817858;29;20066;-75
2021/12/13 09:36:23;;;;;;;36.38;21.58;;;9.90;99.90;;;;;;4815834;29;20034;-76
2021/12/13 09:38:54;;;;;;;;;;;10.00;99.90;;;;;;4814718;29;20110;-76
2021/12/13 09:41:27;;;;;;;33.85;20.08;;;9.90;99.90;;;;;;4819847;29;19936;-76
2021/12/13 09:44:04;;;;;;;35.53;20.45;;;10.00;99.90;;;;;;4817825;29;20381;-76
2021/12/13 09:46:39;;;;;;;29.27;17.67;;;10.00;99.90;;;;;;4819367;29;20046;-75
2021/12/13 09:49:15;;;;;;;27.13;17.52;;;10.00;99.90;;;;;;4816243;29;20422;-76
2021/12/13 09:52:09;;;;;;;34.58;20.27;;;10.00;99.90;;;;;;4818027;29;20406;-75
2021/12/13 09:54:47;;;;;;;31.65;17.95;;;10.00;99.90;;;;;;4817435;29;20042;-75
2021/12/13 09:57:23;;;;;;;30.48;18.13;;;10.00;99.90;;;;;;4818478;29;20038;-75
2021/12/13 09:59:53;;;;;;;29.80;18.60;;;10.00;99.90;;;;;;4798099;29;20387;-75
2021/12/13 10:02:31;;;;;;;29.75;18.77;;;10.00;99.90;;;;;;4810563;29;20037;-75
2021/12/13 10:05:03;;;;;;;30.80;17.85;;;10.00;99.90;;;;;;4815956;29;20461;-76
2021/12/13 10:07:34;;;;;;;27.63;15.43;;;10.00;99.90;;;;;;4816988;29;20038;-75
2021/12/13 10:10:11;;;;;;;27.15;16.92;;;10.00;99.90;;;;;;4816148;29;20034;-76
2021/12/13 10:12:44;;;;;;;31.60;16.63;;;10.00;99.90;;;;;;4819527;29;20049;-76
2021/12/13 10:15:12;;;;;;;30.35;17.15;;;10.00;99.90;;;;;;4802926;29;20042;-76
2021/12/13 10:17:44;;;;;;;30.20;16.48;;;10.10;99.90;;;;;;4816798;29;20046;-76
2021/12/13 10:20:18;;;;;;;23.75;15.25;;;10.00;99.90;;;;;;4817450;29;20035;-76
2021/12/13 10:22:47;;;;;;;26.85;15.77;;;10.10;99.90;;;;;;4819217;29;20039;-76
2021/12/13 10:25:35;;;;;;;23.83;14.60;;;10.00;99.90;;;;;;4819171;29;20053;-76
2021/12/13 10:28:06;;;;;;;25.42;15.50;;;10.10;99.90;;;;;;4811721;29;20035;-76
2021/12/13 10:30:48;;;;;;;22.98;15.65;;;10.10;99.90;;;;;;4813763;29;20034;-75
2021/12/13 10:33:18;;;;;;;24.35;16.10;;;10.10;99.90;;;;;;4815422;29;20035;-76
2021/12/13 10:35:45;;;;;;;19.98;12.82;;;10.10;99.90;;;;;;4814207;29;20043;-75
2021/12/13 10:38:25;;;;;;;23.00;14.45;;;10.10;99.90;;;;;;4816327;29;20394;-75
2021/12/13 10:40:55;;;;;;;30.40;18.45;;;10.20;99.90;;;;;;4817529;29;20046;-75
2021/12/13 10:43:31;;;;;;;27.67;17.95;;;10.20;99.90;;;;;;4817786;29;20045;-76
2021/12/13 10:46:21;;;;;;;27.83;17.02;;;10.20;99.90;;;;;;4817487;29;20051;-75
2021/12/13 10:48:52;;;;;;;28.17;16.60;;;10.20;99.90;;;;;;4817504;29;20042;-75
2021/12/13 10:51:27;;;;;;;22.40;15.00;;;10.20;99.90;;;;;;4815299;29;20030;-76
2021/12/13 10:53:56;;;;;;;23.10;14.63;;;10.20;99.90;;;;;;4817804;29;20042;-75
2021/12/13 10:56:28;;;;;;;24.05;14.98;;;10.30;99.90;;;;;;4818485;29;20049;-75
2021/12/13 10:58:58;;;;;;;20.57;12.80;;;10.30;99.90;;;;;;4817582;29;20045;-76
2021/12/13 11:01:30;;;;;;;20.23;13.30;;;10.30;99.90;;;;;;4815816;29;20045;-76
2021/12/13 11:04:00;;;;;;;24.60;14.02;;;10.40;99.90;;;;;;4817409;29;20049;-76
2021/12/13 11:06:28;;;;;;;21.88;13.43;;;10.40;99.90;;;;;;4817698;29;20049;-76
2021/12/13 11:08:55;;;;;;;21.75;13.80;;;10.40;99.90;;;;;;4816562;29;20049;-76
2021/12/13 11:11:29;;;;;;;18.70;11.82;;;10.40;99.90;;;;;;4799748;29;20399;-76
2021/12/13 11:13:59;;;;;;;18.80;12.70;;;10.40;99.90;;;;;;4817596;29;20042;-76
2021/12/13 11:16:30;;;;;;;20.40;12.65;;;10.40;99.90;;;;;;4815563;29;20058;-76
2021/12/13 11:18:57;;;;;;;21.40;13.25;;;10.40;99.90;;;;;;4815205;29;20482;-76
2021/12/13 11:21:30;;;;;;;16.33;11.57;;;10.40;99.90;;;;;;4819617;29;20042;-76
2021/12/13 11:23:57;;;;;;;17.02;11.20;;;10.40;99.90;;;;;;4821228;29;20665;-76
2021/12/13 11:26:29;;;;;;;13.45;9.13;;;10.40;99.90;;;;;;4817632;29;20045;-75
2021/12/13 11:28:56;;;;;;;19.88;11.73;;;10.50;99.90;;;;;;4818169;29;20034;-75
2021/12/13 11:31:52;;;;;;;16.98;12.50;;;10.50;99.90;;;;;;4816960;29;20042;-77
2021/12/13 11:34:18;;;;;;;14.23;10.35;;;10.40;99.90;;;;;;4796902;29;20046;-77
2021/12/13 11:37:22;;;;;;;14.90;9.98;;;10.50;99.90;;;;;;4812483;29;20049;-77
2021/12/13 11:40:32;;;;;;;14.65;8.50;;;10.50;99.90;;;;;;4814513;29;20034;-76
2021/12/13 11:43:30;;;;;;;18.10;11.13;;;10.50;99.90;;;;;;4816103;29;20103;-78
2021/12/13 11:46:06;;;;;;;16.83;10.98;;;10.50;99.90;;;;;;4819512;29;20035;-77
2021/12/13 11:48:59;;;;;;;15.80;11.18;;;10.50;99.90;;;;;;4817238;29;20045;-78
2021/12/13 11:51:59;;;;;;;15.75;9.95;;;10.50;99.90;;;;;;4817608;29;20046;-77
2021/12/13 11:55:13;;;;;;;16.95;12.48;;;10.50;99.90;;;;;;4802679;29;20047;-77
2021/12/13 11:57:58;;;;;;;15.38;10.38;;;10.50;99.90;;;;;;4815625;29;20061;-77
2021/12/13 12:01:03;;;;;;;16.20;11.30;;;10.50;99.90;;;;;;4817506;29;20026;-78
2021/12/13 12:04:07;;;;;;;17.88;11.60;;;10.50;99.90;;;;;;4800745;29;20042;-75
2021/12/13 12:07:05;;;;;;;17.25;12.95;;;10.50;99.90;;;;;;4821647;29;20038;-76
2021/12/13 12:09:49;;;;;;;16.00;11.30;;;10.60;99.90;;;;;;4811668;29;20034;-76
2021/12/13 12:12:38;;;;;;;16.63;12.23;;;10.60;99.90;;;;;;4812318;29;20046;-76
2021/12/13 12:15:06;;;;;;;17.52;11.55;;;10.60;99.90;;;;;;4818503;29;20034;-75
2021/12/13 12:17:34;;;;;;;13.57;10.07;;;10.60;99.90;;;;;;4814926;29;20043;-76
2021/12/13 12:20:02;;;;;;;16.30;10.15;;;10.60;99.90;;;;;;4813095;29;20038;-75
2021/12/13 12:22:56;;;;;;;14.98;10.52;;;10.60;99.90;;;;;;4802736;29;20517;-75
2021/12/13 12:25:26;;;;;;;14.15;10.05;;;10.60;99.90;;;;;;4817624;29;20037;-76
2021/12/13 12:27:58;;;;;;;16.63;11.90;;;10.70;99.90;;;;;;4787883;29;20035;-76
2021/12/13 12:30:30;;;;;;;14.43;10.82;;;10.60;99.90;;;;;;4815663;29;20039;-76
2021/12/13 12:33:01;;;;;;;14.32;9.57;;;10.70;99.90;;;;;;4821598;29;20035;-76
2021/12/13 12:35:30;;;;;;;13.32;10.48;;;10.70;99.90;;;;;;4818009;29;20410;-76
2021/12/13 12:37:57;;;;;;;16.88;10.63;;;10.70;99.90;;;;;;4821768;29;20038;-76
2021/12/13 12:40:36;;;;;;;13.68;10.38;;;10.80;99.90;;;;;;4817876;29;20050;-76
2021/12/13 12:43:07;;;;;;;17.27;11.43;;;10.70;99.90;;;;;;4821493;29;20038;-77
2021/12/13 12:45:40;;;;;;;12.38;9.70;;;10.70;99.90;;;;;;4820249;29;20031;-76
2021/12/13 12:48:10;;;;;;;15.02;10.80;;;10.70;99.90;;;;;;4818343;29;20038;-76
2021/12/13 12:51:00;;;;;;;10.90;8.77;;;10.70;99.90;;;;;;4819650;29;20084;-77
2021/12/13 12:53:45;;;;;;;13.50;10.35;;;10.70;99.90;;;;;;4821904;29;20046;-76
2021/12/13 12:56:37;;;;;;;12.90;9.57;;;10.70;99.90;;;;;;4821702;29;20038;-77
2021/12/13 12:59:09;;;;;;;12.68;10.00;;;10.60;99.90;;;;;;4817298;29;20046;-76
2021/12/13 13:01:40;;;;;;;12.10;8.68;;;10.60;99.90;;;;;;4805508;29;20047;-80
2021/12/13 13:04:16;;;;;;;11.67;9.53;;;10.60;99.90;;;;;;4821163;29;20586;-76
2021/12/13 13:07:06;;;;;;;13.55;9.15;;;10.60;99.90;;;;;;4818125;29;20286;-78
2021/12/13 13:09:41;;;;;;;12.32;8.68;;;10.60;99.90;;;;;;4818650;29;20499;-77
2021/12/13 13:12:12;;;;;;;11.75;9.23;;;10.60;99.90;;;;;;4820002;29;21123;-77
2021/12/13 13:14:45;;;;;;;11.27;8.27;;;10.60;99.90;;;;;;4820600;29;20509;-76
2021/12/13 13:17:13;;;;;;;9.93;8.65;;;10.60;99.90;;;;;;4819102;29;20545;-77
2021/12/13 13:19:44;;;;;;;11.55;9.23;;;10.50;99.90;;;;;;4813517;29;20379;-77
2021/12/13 13:22:15;;;;;;;10.48;8.43;;;10.50;99.90;;;;;;4815133;29;20035;-76
2021/12/13 13:24:45;;;;;;;14.45;11.50;;;10.50;99.90;;;;;;4816798;29;20054;-76
2021/12/13 13:27:12;;;;;;;11.80;9.70;;;10.50;99.90;;;;;;4818581;29;20039;-76
2021/12/13 13:29:40;;;;;;;15.48;10.93;;;10.50;99.90;;;;;;4815471;29;20494;-76
2021/12/13 13:32:10;;;;;;;11.43;8.93;;;10.50;99.90;;;;;;4818047;29;20042;-76
2021/12/13 13:34:43;;;;;;;13.23;8.20;;;10.50;99.90;;;;;;4818702;29;20057;-75
2021/12/13 13:37:13;;;;;;;11.63;8.80;;;10.50;99.90;;;;;;4816779;29;20034;-76